createdAt,value
2016-12-18T00:00:04.538Z,0.4
2016-12-18T00:01:07.482Z,0.4
2016-12-18T00:02:10.936Z,0.4
2016-12-18T00:03:14.016Z,0.4
2016-12-18T00:04:16.965Z,0.4
2016-12-18T00:05:20.415Z,0.4
2016-12-18T00:06:23.358Z,0.4
2016-12-18T00:07:26.806Z,0.4
2016-12-18T00:08:29.748Z,0.4
2016-12-18T00:10:36.108Z,0.4
2016-12-18T00:11:39.558Z,0.4
2016-12-18T00:12:42.500Z,0.4
2016-12-18T00:13:45.954Z,0.4
2016-12-18T00:14:48.897Z,0.4
2016-12-18T00:15:52.351Z,0.4
2016-12-18T00:16:55.289Z,0.4
2016-12-18T00:17:58.736Z,0.4
2016-12-18T00:19:01.677Z,0.5
2016-12-18T00:20:05.026Z,0.5
2016-12-18T00:22:11.383Z,0.4
2016-12-18T00:23:14.328Z,0.4
2016-12-18T00:24:17.773Z,0.4
2016-12-18T00:25:20.715Z,0.4
2016-12-18T00:26:24.193Z,0.4
2016-12-18T00:27:27.140Z,0.4
2016-12-18T00:28:30.588Z,0.4
2016-12-18T00:29:33.527Z,0.4
2016-12-18T00:30:36.979Z,0.4
2016-12-18T00:31:39.920Z,0.4
2016-12-18T00:32:42.859Z,0.4
2016-12-18T00:33:46.311Z,0.5
2016-12-18T00:34:49.252Z,0.5
2016-12-18T00:35:52.701Z,0.5
2016-12-18T00:36:55.672Z,0.5
2016-12-18T00:37:59.123Z,0.5
2016-12-18T00:39:02.068Z,0.5
2016-12-18T00:40:05.516Z,0.5
2016-12-18T00:41:08.463Z,0.5
2016-12-18T00:42:11.914Z,0.5
2016-12-18T00:43:14.997Z,0.5
2016-12-18T00:44:17.944Z,0.5
2016-12-18T00:45:21.390Z,0.5
2016-12-18T00:46:24.333Z,0.5
2016-12-18T00:47:27.817Z,0.5
2016-12-18T00:48:30.766Z,0.5
2016-12-18T00:49:33.993Z,0.5
2016-12-18T00:50:37.439Z,0.5
2016-12-18T00:51:40.379Z,0.5
2016-12-18T00:52:43.821Z,0.5
2016-12-18T00:53:46.767Z,0.5
2016-12-18T00:55:53.126Z,0.5
2016-12-18T00:56:56.569Z,0.5
2016-12-18T00:57:59.505Z,0.5
2016-12-18T00:59:02.963Z,0.5
2016-12-18T01:00:05.908Z,0.5
2016-12-18T01:01:09.360Z,0.5
2016-12-18T01:02:12.307Z,0.5
2016-12-18T01:03:15.752Z,0.5
2016-12-18T01:04:18.693Z,0.5
2016-12-18T01:05:22.139Z,0.5
2016-12-18T01:07:28.503Z,0.5
2016-12-18T01:08:31.443Z,0.5
2016-12-18T01:09:34.889Z,0.5
2016-12-18T01:10:37.833Z,0.6
2016-12-18T01:11:40.777Z,0.5
2016-12-18T01:12:44.226Z,0.6
2016-12-18T01:13:47.181Z,0.6
2016-12-18T01:14:50.631Z,0.6
2016-12-18T01:15:53.576Z,0.6
2016-12-18T01:16:57.063Z,0.5
2016-12-18T01:18:00.039Z,0.5
2016-12-18T01:19:03.487Z,0.5
2016-12-18T01:20:06.433Z,0.5
2016-12-18T01:21:09.876Z,0.5
2016-12-18T01:22:12.825Z,0.6
2016-12-18T01:23:16.272Z,0.5
2016-12-18T01:24:19.216Z,0.5
2016-12-18T01:25:22.664Z,0.5
2016-12-18T01:26:25.605Z,0.5
2016-12-18T01:27:29.054Z,0.5
2016-12-18T01:28:31.997Z,0.5
2016-12-18T01:29:35.444Z,0.5
2016-12-18T01:30:38.388Z,0.5
2016-12-18T01:31:41.833Z,0.5
2016-12-18T01:32:44.778Z,0.5
2016-12-18T01:33:47.721Z,0.6
2016-12-18T01:34:51.168Z,0.6
2016-12-18T01:35:54.179Z,0.6
2016-12-18T01:36:57.630Z,0.6
2016-12-18T01:38:00.577Z,0.6
2016-12-18T01:39:04.024Z,0.6
2016-12-18T01:40:06.974Z,0.6
2016-12-18T01:41:10.418Z,0.6
2016-12-18T01:42:13.362Z,0.6
2016-12-18T01:43:16.806Z,0.6
2016-12-18T01:44:19.751Z,0.6
2016-12-18T01:45:23.195Z,0.6
2016-12-18T01:46:26.137Z,0.6
2016-12-18T01:47:29.582Z,0.6
2016-12-18T01:48:32.523Z,0.6
2016-12-18T01:49:35.968Z,0.6
2016-12-18T01:50:38.912Z,0.6
2016-12-18T01:51:42.357Z,0.6
2016-12-18T01:52:45.300Z,0.6
2016-12-18T01:53:48.749Z,0.6
2016-12-18T01:54:51.691Z,0.6
2016-12-18T01:55:55.147Z,0.6
2016-12-18T01:56:58.091Z,0.6
2016-12-18T01:58:01.539Z,0.6
2016-12-18T01:59:04.484Z,0.6
2016-12-18T02:00:07.434Z,0.6
2016-12-18T02:01:10.879Z,0.6
2016-12-18T02:02:13.823Z,0.6
2016-12-18T02:03:17.270Z,0.6
2016-12-18T02:04:20.217Z,0.6
2016-12-18T02:05:23.673Z,0.6
2016-12-18T02:06:26.622Z,0.6
2016-12-18T02:07:30.068Z,0.6
2016-12-18T02:08:33.021Z,0.6
2016-12-18T02:09:36.467Z,0.6
2016-12-18T02:10:39.410Z,0.6
2016-12-18T02:11:42.856Z,0.6
2016-12-18T02:12:45.803Z,0.6
2016-12-18T02:13:49.245Z,0.6
2016-12-18T02:14:52.189Z,0.6
2016-12-18T02:15:55.639Z,0.6
2016-12-18T02:16:58.588Z,0.6
2016-12-18T02:18:02.036Z,0.7
2016-12-18T02:19:04.979Z,0.7
2016-12-18T02:20:08.429Z,0.7
2016-12-18T02:21:11.509Z,0.7
2016-12-18T02:22:14.451Z,0.7
2016-12-18T02:24:20.807Z,0.7
2016-12-18T02:25:24.258Z,0.7
2016-12-18T02:26:27.203Z,0.7
2016-12-18T02:27:30.650Z,0.7
2016-12-18T02:28:33.595Z,0.7
2016-12-18T02:29:37.040Z,0.7
2016-12-18T02:30:39.983Z,0.6
2016-12-18T02:31:43.433Z,0.6
2016-12-18T02:32:46.375Z,0.6
2016-12-18T02:33:49.817Z,0.7
2016-12-18T02:34:52.761Z,0.7
2016-12-18T02:35:56.207Z,0.7
2016-12-18T02:36:59.148Z,0.7
2016-12-18T02:38:02.594Z,0.7
2016-12-18T02:39:05.604Z,0.8
2016-12-18T02:40:09.052Z,0.8
2016-12-18T02:41:11.995Z,0.7
2016-12-18T02:42:15.440Z,0.7
2016-12-18T02:43:18.378Z,0.8
2016-12-18T02:44:21.826Z,0.7
2016-12-18T02:45:24.775Z,0.7
2016-12-18T02:46:28.225Z,0.8
2016-12-18T02:47:31.178Z,0.7
2016-12-18T02:48:34.185Z,0.7
2016-12-18T02:49:37.775Z,0.7
2016-12-18T02:51:44.128Z,0.7
2016-12-18T02:52:47.207Z,0.7
2016-12-18T02:53:50.154Z,0.7
2016-12-18T02:54:53.608Z,0.8
2016-12-18T02:55:56.555Z,0.8
2016-12-18T02:56:59.999Z,0.8
2016-12-18T02:58:02.943Z,0.8
2016-12-18T02:59:06.390Z,0.8
2016-12-18T03:00:09.333Z,0.8
2016-12-18T03:01:12.783Z,0.8
2016-12-18T03:02:15.729Z,0.8
2016-12-18T03:03:19.171Z,0.8
2016-12-18T03:04:22.114Z,0.8
2016-12-18T03:05:25.597Z,0.8
2016-12-18T03:06:28.538Z,0.8
2016-12-18T03:07:31.981Z,0.8
2016-12-18T03:08:34.921Z,0.8
2016-12-18T03:09:38.364Z,0.8
2016-12-18T03:10:41.305Z,0.8
2016-12-18T03:11:44.748Z,0.8
2016-12-18T03:12:47.697Z,0.8
2016-12-18T03:13:51.151Z,0.8
2016-12-18T03:14:54.097Z,0.8
2016-12-18T03:15:57.546Z,0.8
2016-12-18T03:17:00.485Z,0.9
2016-12-18T03:18:03.932Z,0.8
2016-12-18T03:19:06.872Z,0.9
2016-12-18T03:20:10.317Z,0.9
2016-12-18T03:21:13.262Z,0.8
2016-12-18T03:22:16.209Z,0.8
2016-12-18T03:23:19.657Z,0.8
2016-12-18T03:23:49.885Z,0.8
2016-12-18T03:24:22.633Z,0.8
2016-12-18T03:25:26.077Z,0.8
2016-12-18T03:26:29.019Z,0.8
2016-12-18T03:27:32.463Z,0.8
2016-12-18T03:28:35.405Z,0.9
2016-12-18T03:29:38.852Z,0.9
2016-12-18T03:30:41.794Z,0.9
2016-12-18T03:31:45.238Z,0.9
2016-12-18T03:32:48.177Z,0.9
2016-12-18T03:33:51.628Z,0.9
2016-12-18T03:34:54.573Z,0.9
2016-12-18T03:35:58.083Z,0.9
2016-12-18T03:37:01.025Z,0.9
2016-12-18T03:38:04.471Z,0.9
2016-12-18T03:39:07.414Z,0.9
2016-12-18T03:40:10.860Z,0.9
2016-12-18T03:41:13.803Z,0.9
2016-12-18T03:42:17.244Z,0.9
2016-12-18T03:43:20.187Z,0.9
2016-12-18T03:44:23.637Z,0.9
2016-12-18T03:45:26.583Z,0.9
2016-12-18T03:46:30.064Z,0.9
2016-12-18T03:47:33.003Z,0.9
2016-12-18T03:48:36.453Z,1
2016-12-18T03:49:39.421Z,1
2016-12-18T03:50:42.865Z,1
2016-12-18T03:51:45.818Z,1
2016-12-18T03:52:48.766Z,0.9
2016-12-18T03:53:52.211Z,0.9
2016-12-18T03:54:55.157Z,0.9
2016-12-18T03:55:58.597Z,0.9
2016-12-18T03:57:01.532Z,0.9
2016-12-18T03:58:04.972Z,0.9
2016-12-18T03:59:07.907Z,1
2016-12-18T04:00:11.349Z,1
2016-12-18T04:01:14.294Z,1
2016-12-18T04:02:17.734Z,1
2016-12-18T04:03:20.672Z,1
2016-12-18T04:04:24.108Z,1
2016-12-18T04:05:27.552Z,1
2016-12-18T04:06:30.698Z,1
2016-12-18T04:07:33.633Z,1
2016-12-18T04:08:37.077Z,1
2016-12-18T04:09:40.018Z,1
2016-12-18T04:10:43.457Z,1
2016-12-18T04:11:46.528Z,1
2016-12-18T04:12:49.468Z,1
2016-12-18T04:13:52.909Z,1
2016-12-18T04:14:55.844Z,1
2016-12-18T04:15:59.284Z,1
2016-12-18T04:17:02.228Z,1
2016-12-18T04:18:05.674Z,1
2016-12-18T04:19:08.747Z,1
2016-12-18T04:20:12.194Z,1
2016-12-18T04:21:15.134Z,1
2016-12-18T04:22:18.575Z,1
2016-12-18T04:23:21.512Z,1
2016-12-18T04:24:24.930Z,1
2016-12-18T04:25:27.866Z,1
2016-12-18T04:26:31.310Z,1
2016-12-18T04:27:34.248Z,1
2016-12-18T04:28:37.689Z,1
2016-12-18T04:29:40.625Z,1
2016-12-18T04:31:46.979Z,1
2016-12-18T04:32:50.420Z,1
2016-12-18T04:33:53.360Z,1
2016-12-18T04:34:56.800Z,1
2016-12-18T04:35:59.738Z,1
2016-12-18T04:37:03.186Z,1
2016-12-18T04:38:06.121Z,1
2016-12-18T04:39:09.560Z,1
2016-12-18T04:40:12.493Z,1.1
2016-12-18T04:41:15.939Z,1.1
2016-12-18T04:42:18.876Z,1.1
2016-12-18T04:43:22.314Z,1.1
2016-12-18T04:44:25.255Z,1.1
2016-12-18T04:45:28.698Z,1.1
2016-12-18T04:46:31.629Z,1.1
2016-12-18T04:47:35.069Z,1.1
2016-12-18T04:48:38.036Z,1.1
2016-12-18T04:49:41.478Z,1.1
2016-12-18T04:50:44.419Z,1.1
2016-12-18T04:51:47.862Z,1.1
2016-12-18T04:52:50.805Z,1.1
2016-12-18T04:53:54.252Z,1.1
2016-12-18T04:54:57.196Z,1.1
2016-12-18T04:56:00.669Z,1.1
2016-12-18T04:57:03.608Z,1.1
2016-12-18T04:58:07.049Z,1.1
2016-12-18T04:59:09.990Z,1.1
2016-12-18T05:00:13.429Z,1.1
2016-12-18T05:01:16.367Z,1.1
2016-12-18T05:02:19.808Z,1.1
2016-12-18T05:03:22.783Z,1.1
2016-12-18T05:04:26.226Z,1.1
2016-12-18T05:05:29.162Z,1.1
2016-12-18T05:06:32.599Z,1.1
2016-12-18T05:07:35.541Z,1.1
2016-12-18T05:08:38.986Z,1.1
2016-12-18T05:09:41.921Z,1.1
2016-12-18T05:10:45.367Z,1.1
2016-12-18T05:11:48.307Z,1.1
2016-12-18T05:12:51.750Z,1.1
2016-12-18T05:13:54.689Z,1.1
2016-12-18T05:14:58.135Z,1.1
2016-12-18T05:16:01.080Z,1.1
2016-12-18T05:17:04.519Z,1.1
2016-12-18T05:18:07.460Z,1.1
2016-12-18T05:19:10.903Z,1.1
2016-12-18T05:20:13.839Z,1.1
2016-12-18T05:21:17.278Z,1.1
2016-12-18T05:22:20.216Z,1.1
2016-12-18T05:23:23.657Z,1.1
2016-12-18T05:24:26.598Z,1.1
2016-12-18T05:25:30.038Z,1.1
2016-12-18T05:26:32.979Z,1.2
2016-12-18T05:27:36.423Z,1.1
2016-12-18T05:28:39.364Z,1.1
2016-12-18T05:29:42.807Z,1.1
2016-12-18T05:30:45.743Z,1.1
2016-12-18T05:31:49.185Z,1.1
2016-12-18T05:32:52.126Z,1.2
2016-12-18T05:33:55.571Z,1.2
2016-12-18T05:34:58.515Z,1.2
2016-12-18T05:36:01.955Z,1.2
2016-12-18T05:37:04.895Z,1.2
2016-12-18T05:38:08.340Z,1.2
2016-12-18T05:39:11.280Z,1.2
2016-12-18T05:41:17.628Z,1.1
2016-12-18T05:42:21.076Z,1.2
2016-12-18T05:43:24.016Z,1.2
2016-12-18T05:44:27.460Z,1.2
2016-12-18T05:45:30.404Z,1.2
2016-12-18T05:46:33.842Z,1.2
2016-12-18T05:47:36.777Z,1.2
2016-12-18T05:48:40.355Z,1.2
2016-12-18T05:49:43.299Z,1.2
2016-12-18T05:50:46.233Z,1.3
2016-12-18T05:51:49.672Z,1.3
2016-12-18T05:52:53.171Z,1.3
2016-12-18T05:53:56.151Z,1.2
2016-12-18T05:54:59.085Z,1.3
2016-12-18T05:56:02.528Z,1.3
2016-12-18T05:57:05.465Z,1.3
2016-12-18T05:58:08.908Z,1.3
2016-12-18T05:59:11.847Z,1.3
2016-12-18T06:00:15.286Z,1.3
2016-12-18T06:01:18.226Z,1.3
2016-12-18T06:02:21.669Z,1.3
2016-12-18T06:03:24.604Z,1.3
2016-12-18T06:04:28.046Z,1.3
2016-12-18T06:05:31.018Z,1.3
2016-12-18T06:06:34.456Z,1.3
2016-12-18T06:07:37.390Z,1.3
2016-12-18T06:08:40.832Z,1.3
2016-12-18T06:09:43.766Z,1.3
2016-12-18T06:10:47.272Z,1.3
2016-12-18T06:11:50.210Z,1.3
2016-12-18T06:12:53.654Z,1.3
2016-12-18T06:13:56.651Z,1.3
2016-12-18T06:15:00.157Z,1.3
2016-12-18T06:16:03.096Z,1.4
2016-12-18T06:17:06.536Z,1.3
2016-12-18T06:18:09.471Z,1.3
2016-12-18T06:20:15.820Z,1.3
2016-12-18T06:21:19.270Z,1.3
2016-12-18T06:22:22.216Z,1.3
2016-12-18T06:23:25.659Z,1.4
2016-12-18T06:24:28.591Z,1.4
2016-12-18T06:26:34.948Z,1.4
2016-12-18T06:27:38.388Z,1.4
2016-12-18T06:28:41.324Z,1.4
2016-12-18T06:29:44.761Z,1.4
2016-12-18T06:30:47.697Z,1.4
2016-12-18T06:31:51.136Z,1.4
2016-12-18T06:32:54.079Z,1.4
2016-12-18T06:33:57.598Z,1.4
2016-12-18T06:35:00.535Z,1.4
2016-12-18T06:36:03.982Z,1.4
2016-12-18T06:37:06.918Z,1.4
2016-12-18T06:38:10.419Z,1.4
2016-12-18T06:39:13.356Z,1.4
2016-12-18T06:40:16.802Z,1.4
2016-12-18T06:41:19.745Z,1.4
2016-12-18T06:42:23.184Z,1.5
2016-12-18T06:43:26.011Z,1.5
2016-12-18T06:44:29.459Z,1.4
2016-12-18T06:45:32.404Z,1.4
2016-12-18T06:47:39.259Z,1.4
2016-12-18T06:48:42.195Z,1.4
2016-12-18T06:49:45.673Z,1.5
2016-12-18T06:50:48.608Z,1.5
2016-12-18T06:51:52.048Z,1.5
2016-12-18T06:52:54.987Z,1.4
2016-12-18T06:53:58.437Z,1.5
2016-12-18T06:55:01.379Z,1.4
2016-12-18T06:56:04.827Z,1.5
2016-12-18T06:57:07.761Z,1.5
2016-12-18T06:58:11.203Z,1.5
2016-12-18T06:59:14.145Z,1.5
2016-12-18T07:00:17.592Z,1.5
2016-12-18T07:01:20.534Z,1.5
2016-12-18T07:02:23.997Z,1.5
2016-12-18T07:03:26.932Z,1.5
2016-12-18T07:04:30.374Z,1.5
2016-12-18T07:05:33.312Z,1.5
2016-12-18T07:06:36.755Z,1.5
2016-12-18T07:07:39.698Z,1.5
2016-12-18T07:08:43.133Z,1.5
2016-12-18T07:09:46.067Z,1.5
2016-12-18T07:10:49.504Z,1.5
2016-12-18T07:12:55.856Z,1.5
2016-12-18T07:13:58.789Z,1.5
2016-12-18T07:15:02.235Z,1.5
2016-12-18T07:16:05.173Z,1.5
2016-12-18T07:17:08.611Z,1.5
2016-12-18T07:18:11.551Z,1.5
2016-12-18T07:19:14.994Z,1.5
2016-12-18T07:20:17.934Z,1.5
2016-12-18T07:21:21.510Z,1.5
2016-12-18T07:22:24.450Z,1.5
2016-12-18T07:23:27.953Z,1.5
2016-12-18T07:24:30.891Z,1.5
2016-12-18T07:25:34.330Z,1.5
2016-12-18T07:27:40.686Z,1.5
2016-12-18T07:28:43.622Z,1.5
2016-12-18T07:29:47.058Z,1.5
2016-12-18T07:30:50.005Z,1.5
2016-12-18T07:31:53.445Z,1.5
2016-12-18T07:32:56.387Z,1.5
2016-12-18T07:33:59.830Z,1.5
2016-12-18T07:35:02.772Z,1.5
2016-12-18T07:36:06.217Z,1.5
2016-12-18T07:37:09.155Z,1.5
2016-12-18T07:38:12.598Z,1.5
2016-12-18T07:39:15.536Z,1.5
2016-12-18T07:40:18.979Z,1.5
2016-12-18T07:41:21.950Z,1.5
2016-12-18T07:42:25.391Z,1.5
2016-12-18T07:43:28.329Z,1.5
2016-12-18T07:44:31.770Z,1.5
2016-12-18T07:45:34.708Z,1.5
2016-12-18T07:46:38.149Z,1.5
2016-12-18T07:47:41.096Z,1.5
2016-12-18T07:48:44.532Z,1.5
2016-12-18T07:49:47.473Z,1.5
2016-12-18T07:50:50.910Z,1.5
2016-12-18T07:51:53.847Z,1.5
2016-12-18T07:52:57.291Z,1.6
2016-12-18T07:54:00.229Z,1.6
2016-12-18T07:55:03.669Z,1.6
2016-12-18T07:56:07.115Z,1.6
2016-12-18T07:57:10.053Z,1.6
2016-12-18T07:58:13.495Z,1.6
2016-12-18T07:59:16.436Z,1.6
2016-12-18T08:01:22.793Z,1.6
2016-12-18T08:02:26.293Z,1.6
2016-12-18T08:03:29.232Z,1.6
2016-12-18T08:04:32.676Z,1.6
2016-12-18T08:05:35.615Z,1.6
2016-12-18T08:06:39.055Z,1.6
2016-12-18T08:07:41.999Z,1.6
2016-12-18T08:08:45.444Z,1.6
2016-12-18T08:09:48.383Z,1.6
2016-12-18T08:10:51.824Z,1.6
2016-12-18T08:11:54.759Z,1.6
2016-12-18T08:12:58.201Z,1.6
2016-12-18T08:14:01.270Z,1.6
2016-12-18T08:15:04.264Z,1.6
2016-12-18T08:16:07.708Z,1.6
2016-12-18T08:17:10.649Z,1.6
2016-12-18T08:19:17.003Z,1.6
2016-12-18T08:21:23.855Z,1.6
2016-12-18T08:22:26.792Z,1.6
2016-12-18T08:23:30.234Z,1.6
2016-12-18T08:24:33.175Z,1.6
2016-12-18T08:25:36.612Z,1.6
2016-12-18T08:26:39.551Z,1.6
2016-12-18T08:27:42.995Z,1.7
2016-12-18T08:28:45.937Z,1.7
2016-12-18T08:29:49.377Z,1.6
2016-12-18T08:30:52.326Z,1.6
2016-12-18T08:31:55.767Z,1.6
2016-12-18T08:32:58.705Z,1.6
2016-12-18T08:34:02.150Z,1.6
2016-12-18T08:35:05.085Z,1.6
2016-12-18T08:37:11.439Z,1.6
2016-12-18T08:38:14.882Z,1.6
2016-12-18T08:39:17.822Z,1.7
2016-12-18T08:40:21.270Z,1.7
2016-12-18T08:41:24.212Z,1.7
2016-12-18T08:42:27.654Z,1.7
2016-12-18T08:43:31.097Z,1.7
2016-12-18T08:45:37.449Z,1.7
2016-12-18T08:46:40.387Z,1.7
2016-12-18T08:47:43.834Z,1.7
2016-12-18T08:48:46.777Z,1.8
2016-12-18T08:49:50.219Z,1.7
2016-12-18T08:50:53.162Z,1.7
2016-12-18T08:51:56.608Z,1.7
2016-12-18T08:52:59.548Z,1.8
2016-12-18T08:54:02.987Z,1.8
2016-12-18T08:55:05.954Z,1.8
2016-12-18T08:56:09.395Z,1.8
2016-12-18T08:57:12.334Z,1.8
2016-12-18T08:58:15.770Z,1.8
2016-12-18T08:59:18.960Z,1.8
2016-12-18T09:00:21.905Z,1.8
2016-12-18T09:01:25.350Z,1.8
2016-12-18T09:02:28.290Z,1.8
2016-12-18T09:03:31.729Z,1.8
2016-12-18T09:04:34.672Z,1.8
2016-12-18T09:05:38.116Z,1.8
2016-12-18T09:06:41.556Z,1.8
2016-12-18T09:07:44.497Z,1.8
2016-12-18T09:08:47.940Z,1.8
2016-12-18T09:09:50.877Z,1.8
2016-12-18T09:10:54.313Z,1.9
2016-12-18T09:11:57.256Z,1.9
2016-12-18T09:13:00.704Z,1.9
2016-12-18T09:14:03.639Z,1.8
2016-12-18T09:15:07.077Z,1.8
2016-12-18T09:16:10.018Z,1.8
2016-12-18T09:17:13.461Z,1.8
2016-12-18T09:18:16.392Z,1.9
2016-12-18T09:19:19.829Z,1.8
2016-12-18T09:20:22.766Z,1.8
2016-12-18T09:21:26.206Z,1.8
2016-12-18T09:22:29.647Z,1.9
2016-12-18T09:23:32.586Z,1.9
2016-12-18T09:24:36.028Z,1.9
2016-12-18T09:25:38.980Z,1.9
2016-12-18T09:26:42.286Z,1.9
2016-12-18T09:27:45.227Z,1.9
2016-12-18T09:28:48.703Z,1.9
2016-12-18T09:30:55.050Z,2
2016-12-18T09:31:58.487Z,2
2016-12-18T09:33:01.573Z,2
2016-12-18T09:34:04.512Z,2
2016-12-18T09:35:07.952Z,2
2016-12-18T09:36:10.890Z,2
2016-12-18T09:37:14.331Z,2
2016-12-18T09:38:17.773Z,2
2016-12-18T09:39:20.712Z,2
2016-12-18T09:40:24.156Z,2.1
2016-12-18T09:41:27.088Z,2.1
2016-12-18T09:42:30.220Z,2.1
2016-12-18T09:43:33.666Z,2.1
2016-12-18T09:44:36.602Z,2.1
2016-12-18T09:45:40.046Z,2.1
2016-12-18T09:47:46.396Z,2.1
2016-12-18T09:48:49.845Z,2.1
2016-12-18T09:49:52.788Z,2
2016-12-18T09:50:56.229Z,2
2016-12-18T09:51:59.161Z,2
2016-12-18T09:53:02.612Z,2
2016-12-18T09:54:05.557Z,2
2016-12-18T09:55:08.996Z,2
2016-12-18T09:56:11.944Z,2
2016-12-18T09:57:15.386Z,2
2016-12-18T09:58:18.333Z,2
2016-12-18T09:59:21.777Z,2
2016-12-18T10:00:25.220Z,2
2016-12-18T10:01:28.160Z,2
2016-12-18T10:02:31.605Z,2.1
2016-12-18T10:03:34.548Z,2.1
2016-12-18T10:04:37.990Z,2.1
2016-12-18T10:05:40.925Z,2.1
2016-12-18T10:06:44.370Z,2.1
2016-12-18T10:07:47.311Z,2.1
2016-12-18T10:08:50.756Z,2.1
2016-12-18T10:09:53.696Z,2.1
2016-12-18T10:10:57.137Z,2.1
2016-12-18T10:12:00.069Z,2.1
2016-12-18T10:13:03.507Z,2.1
2016-12-18T10:14:06.950Z,2.1
2016-12-18T10:15:09.890Z,2.1
2016-12-18T10:16:13.329Z,2.1
2016-12-18T10:17:16.270Z,2.1
2016-12-18T10:18:19.715Z,2.1
2016-12-18T10:19:22.651Z,2.1
2016-12-18T10:20:26.088Z,2.1
2016-12-18T10:21:29.160Z,2.1
2016-12-18T10:22:32.600Z,2.2
2016-12-18T10:23:35.545Z,2.2
2016-12-18T10:24:38.985Z,2.2
2016-12-18T10:25:41.927Z,2.2
2016-12-18T10:26:45.369Z,2.2
2016-12-18T10:27:48.309Z,2.2
2016-12-18T10:28:51.758Z,2.3
2016-12-18T10:29:55.198Z,2.3
2016-12-18T10:30:58.138Z,2.3
2016-12-18T10:32:01.713Z,2.3
2016-12-18T10:33:04.649Z,2.3
2016-12-18T10:34:07.588Z,2.3
2016-12-18T10:35:11.031Z,2.3
2016-12-18T10:36:14.473Z,2.3
2016-12-18T10:37:17.412Z,2.3
2016-12-18T10:38:20.854Z,2.3
2016-12-18T10:39:23.789Z,2.3
2016-12-18T10:40:27.233Z,2.4
2016-12-18T10:41:30.173Z,2.3
2016-12-18T10:42:33.614Z,2.3
2016-12-18T10:43:36.557Z,2.3
2016-12-18T10:45:43.414Z,2.3
2016-12-18T10:46:46.385Z,2.3
2016-12-18T10:47:49.837Z,2.3
2016-12-18T10:48:52.773Z,2.3
2016-12-18T10:49:56.215Z,2.3
2016-12-18T10:50:59.151Z,2.3
2016-12-18T10:52:02.594Z,2.3
2016-12-18T10:53:06.034Z,2.3
2016-12-18T10:54:08.972Z,2.3
2016-12-18T10:55:12.417Z,2.3
2016-12-18T10:56:15.355Z,2.3
2016-12-18T10:57:18.796Z,2.3
2016-12-18T10:58:21.731Z,2.4
2016-12-18T10:59:25.170Z,2.4
2016-12-18T11:00:28.110Z,2.4
2016-12-18T11:01:31.547Z,2.4
2016-12-18T11:02:34.991Z,2.4
2016-12-18T11:03:37.930Z,2.4
2016-12-18T11:04:41.366Z,2.5
2016-12-18T11:05:44.306Z,2.5
2016-12-18T11:06:47.757Z,2.5
2016-12-18T11:07:50.697Z,2.4
2016-12-18T11:08:54.142Z,2.5
2016-12-18T11:09:57.585Z,2.5
2016-12-18T11:11:00.524Z,2.5
2016-12-18T11:12:03.965Z,2.5
2016-12-18T11:13:06.902Z,2.5
2016-12-18T11:14:10.344Z,2.5
2016-12-18T11:15:13.285Z,2.5
2016-12-18T11:16:16.724Z,2.5
2016-12-18T11:17:20.159Z,2.5
2016-12-18T11:18:23.094Z,2.4
2016-12-18T11:19:26.558Z,2.5
2016-12-18T11:20:29.493Z,2.5
2016-12-18T11:21:32.933Z,2.5
2016-12-18T11:22:35.870Z,2.5
2016-12-18T11:23:39.311Z,2.5
2016-12-18T11:24:42.249Z,2.5
2016-12-18T11:25:45.692Z,2.5
2016-12-18T11:26:49.129Z,2.5
2016-12-18T11:27:52.065Z,2.5
2016-12-18T11:28:55.515Z,2.5
2016-12-18T11:29:58.450Z,2.6
2016-12-18T11:31:01.889Z,2.6
2016-12-18T11:32:04.827Z,2.6
2016-12-18T11:33:08.267Z,2.6
2016-12-18T11:34:11.307Z,2.6
2016-12-18T11:35:14.749Z,2.6
2016-12-18T11:36:18.186Z,2.6
2016-12-18T11:37:21.121Z,2.6
2016-12-18T11:38:24.562Z,2.6
2016-12-18T11:39:27.501Z,2.5
2016-12-18T11:40:30.943Z,2.5
2016-12-18T11:41:33.885Z,2.5
2016-12-18T11:42:37.329Z,2.6
2016-12-18T11:43:40.800Z,2.5
2016-12-18T11:45:47.158Z,2.6
2016-12-18T11:46:50.099Z,2.6
2016-12-18T11:47:53.536Z,2.6
2016-12-18T11:48:56.489Z,2.6
2016-12-18T11:49:59.929Z,2.6
2016-12-18T11:52:06.284Z,2.6
2016-12-18T11:53:09.725Z,2.6
2016-12-18T11:54:12.662Z,2.6
2016-12-18T11:55:16.101Z,2.6
2016-12-18T11:57:22.589Z,2.6
2016-12-18T11:58:25.532Z,2.6
2016-12-18T11:59:28.979Z,2.6
2016-12-18T12:00:31.917Z,2.6
2016-12-18T12:01:35.358Z,2.6
2016-12-18T12:02:38.802Z,2.6
2016-12-18T12:04:45.154Z,2.6
2016-12-18T12:05:48.092Z,2.6
2016-12-18T12:06:51.538Z,2.6
2016-12-18T12:07:54.982Z,2.6
2016-12-18T12:08:57.935Z,2.6
2016-12-18T12:10:01.376Z,2.6
2016-12-18T12:11:04.315Z,2.6
2016-12-18T12:13:10.671Z,2.6
2016-12-18T12:14:14.116Z,2.6
2016-12-18T12:15:17.556Z,2.6
2016-12-18T12:16:20.491Z,2.6
2016-12-18T12:17:23.932Z,2.6
2016-12-18T12:18:26.870Z,2.6
2016-12-18T12:19:30.316Z,2.6
2016-12-18T12:20:33.254Z,2.7
2016-12-18T12:21:36.698Z,2.7
2016-12-18T12:22:40.143Z,2.7
2016-12-18T12:23:43.076Z,2.7
2016-12-18T12:24:46.581Z,2.7
2016-12-18T12:25:49.523Z,2.7
2016-12-18T12:26:53.002Z,2.7
2016-12-18T12:27:55.939Z,2.7
2016-12-18T12:28:59.386Z,2.7
2016-12-18T12:30:02.337Z,2.7
2016-12-18T12:31:05.777Z,2.7
2016-12-18T12:32:08.715Z,2.7
2016-12-18T12:33:12.158Z,2.7
2016-12-18T12:34:15.600Z,2.7
2016-12-18T12:35:18.539Z,2.7
2016-12-18T12:36:21.977Z,2.7
2016-12-18T12:37:24.921Z,2.7
2016-12-18T12:38:28.363Z,2.7
2016-12-18T12:39:31.803Z,2.7
2016-12-18T12:40:34.748Z,2.7
2016-12-18T12:41:38.188Z,2.8
2016-12-18T12:42:41.132Z,2.8
2016-12-18T12:43:44.568Z,2.8
2016-12-18T12:44:47.515Z,2.8
2016-12-18T12:45:50.959Z,2.8
2016-12-18T12:46:54.404Z,2.7
2016-12-18T12:47:57.344Z,2.8
2016-12-18T12:49:00.784Z,2.8
2016-12-18T12:50:03.721Z,2.8
2016-12-18T12:51:07.161Z,2.8
2016-12-18T12:52:10.098Z,2.8
2016-12-18T12:53:13.539Z,2.8
2016-12-18T12:54:16.984Z,2.8
2016-12-18T12:55:19.920Z,2.8
2016-12-18T12:56:23.362Z,2.8
2016-12-18T12:57:26.302Z,2.8
2016-12-18T12:58:29.745Z,2.8
2016-12-18T12:59:32.684Z,2.8
2016-12-18T13:00:36.130Z,2.8
2016-12-18T13:01:39.573Z,2.8
2016-12-18T13:02:42.508Z,2.8
2016-12-18T13:03:45.946Z,2.8
2016-12-18T13:04:48.880Z,2.8
2016-12-18T13:05:52.321Z,2.8
2016-12-18T13:06:55.761Z,2.8
2016-12-18T13:07:58.699Z,2.8
2016-12-18T13:09:02.141Z,2.8
2016-12-18T13:10:05.080Z,2.8
2016-12-18T13:11:08.526Z,2.8
2016-12-18T13:12:11.472Z,2.8
2016-12-18T13:13:14.916Z,2.8
2016-12-18T13:14:18.357Z,2.9
2016-12-18T13:15:21.294Z,2.9
2016-12-18T13:16:24.740Z,2.9
2016-12-18T13:18:31.093Z,2.9
2016-12-18T13:19:34.530Z,2.9
2016-12-18T13:20:37.465Z,2.9
2016-12-18T13:21:40.906Z,2.9
2016-12-18T13:22:43.854Z,2.9
2016-12-18T13:23:47.292Z,2.9
2016-12-18T13:24:50.226Z,2.9
2016-12-18T13:25:53.667Z,2.9
2016-12-18T13:26:57.104Z,2.9
2016-12-18T13:28:00.039Z,2.9
2016-12-18T13:29:03.483Z,3
2016-12-18T13:30:06.426Z,3
2016-12-18T13:31:09.870Z,3
2016-12-18T13:32:13.313Z,3
2016-12-18T13:33:16.256Z,3
2016-12-18T13:34:19.700Z,3
2016-12-18T13:35:22.641Z,3
2016-12-18T13:36:26.080Z,3
2016-12-18T13:37:29.018Z,3
2016-12-18T13:38:32.456Z,3
2016-12-18T13:40:38.810Z,3
2016-12-18T13:41:42.254Z,3
2016-12-18T13:42:45.195Z,3
2016-12-18T13:43:48.636Z,3
2016-12-18T13:44:52.085Z,3
2016-12-18T13:45:55.026Z,3
2016-12-18T13:46:58.494Z,3
2016-12-18T13:48:01.437Z,3
2016-12-18T13:49:05.017Z,3
2016-12-18T13:50:07.955Z,3
2016-12-18T13:51:11.399Z,3
2016-12-18T13:52:14.340Z,3
2016-12-18T13:53:17.780Z,3
2016-12-18T13:54:20.722Z,3
2016-12-18T13:55:24.166Z,3
2016-12-18T13:56:27.616Z,3
2016-12-18T13:57:30.555Z,3
2016-12-18T13:58:33.998Z,3
2016-12-18T13:59:36.934Z,3
2016-12-18T14:00:40.409Z,3
2016-12-18T14:01:43.346Z,3
2016-12-18T14:03:50.202Z,2.9
2016-12-18T14:04:53.144Z,3
2016-12-18T14:05:56.585Z,3
2016-12-18T14:06:59.519Z,3
2016-12-18T14:08:02.963Z,3
2016-12-18T14:09:06.038Z,3
2016-12-18T14:10:09.477Z,3
2016-12-18T14:12:15.831Z,3
2016-12-18T14:13:19.273Z,3
2016-12-18T14:14:22.213Z,3
2016-12-18T14:15:25.652Z,3
2016-12-18T14:16:28.590Z,3
2016-12-18T14:17:32.027Z,3
2016-12-18T14:18:35.465Z,3
2016-12-18T14:19:38.404Z,3
2016-12-18T14:20:41.846Z,3
2016-12-18T14:21:44.793Z,3
2016-12-18T14:22:48.230Z,3
2016-12-18T14:23:51.670Z,3
2016-12-18T14:24:54.605Z,3
2016-12-18T14:25:58.046Z,3
2016-12-18T14:27:00.988Z,3.1
2016-12-18T14:28:04.430Z,3
2016-12-18T14:29:07.365Z,3
2016-12-18T14:30:10.805Z,3
2016-12-18T14:31:14.254Z,3
2016-12-18T14:32:17.191Z,3
2016-12-18T14:33:20.638Z,3
2016-12-18T14:34:23.574Z,3
2016-12-18T14:35:27.017Z,3
2016-12-18T14:36:30.456Z,3
2016-12-18T14:37:33.388Z,3
2016-12-18T14:38:36.830Z,3.1
2016-12-18T14:39:39.912Z,3.1
2016-12-18T14:40:43.357Z,3.1
2016-12-18T14:41:46.292Z,3.1
2016-12-18T14:42:49.875Z,3.1
2016-12-18T14:43:52.818Z,3.1
2016-12-18T14:44:56.257Z,3.1
2016-12-18T14:45:59.193Z,3.1
2016-12-18T14:47:02.639Z,3.1
2016-12-18T14:48:05.578Z,3.1
2016-12-18T14:49:09.019Z,3.1
2016-12-18T14:50:12.462Z,3.1
2016-12-18T14:51:15.407Z,3.1
2016-12-18T14:52:18.848Z,3.1
2016-12-18T14:53:21.788Z,3.1
2016-12-18T14:54:25.230Z,3.1
2016-12-18T14:55:28.172Z,3.1
2016-12-18T14:56:31.643Z,3.1
2016-12-18T14:57:35.079Z,3.1
2016-12-18T14:58:38.019Z,3.1
2016-12-18T14:59:41.459Z,3.1
2016-12-18T15:00:44.397Z,3.1
2016-12-18T15:01:47.843Z,3.1
2016-12-18T15:02:50.781Z,3.1
2016-12-18T15:03:54.220Z,3.1
2016-12-18T15:04:57.663Z,3.1
2016-12-18T15:06:00.541Z,3.1
2016-12-18T15:07:03.985Z,3.1
2016-12-18T15:08:07.054Z,3.1
2016-12-18T15:09:10.494Z,3.1